createdAt,value
2024-02-11T00:00:00.442Z,8.92
2024-02-11T00:02:30.197Z,8.85
2024-02-11T00:04:58.821Z,8.81
2024-02-11T00:07:27.568Z,8.76
2024-02-11T00:09:57.179Z,8.71
2024-02-11T00:12:25.744Z,8.66
2024-02-11T00:14:54.354Z,8.64
2024-02-11T00:17:23.060Z,8.62
2024-02-11T00:19:51.785Z,8.59
2024-02-11T00:22:20.610Z,8.59
2024-02-11T00:24:50.635Z,8.62
2024-02-11T00:27:19.338Z,8.65
2024-02-11T00:29:48.019Z,8.67
2024-02-11T00:32:17.170Z,8.68
2024-02-11T00:34:46.235Z,8.72
2024-02-11T00:37:14.973Z,8.74
2024-02-11T00:39:43.657Z,8.75
2024-02-11T00:42:12.651Z,8.75
2024-02-11T00:44:41.233Z,8.74
2024-02-11T00:47:11.194Z,8.72
2024-02-11T00:49:39.635Z,8.72
2024-02-11T00:52:08.313Z,8.70
2024-02-11T00:54:39.380Z,8.66
2024-02-11T00:57:09.434Z,8.64
2024-02-11T00:59:39.286Z,8.66
2024-02-11T01:02:08.694Z,8.69
2024-02-11T01:04:40.902Z,8.70
2024-02-11T01:07:09.961Z,8.70
2024-02-11T01:09:39.051Z,8.70
2024-02-11T01:12:07.731Z,8.71
2024-02-11T01:14:36.348Z,8.72
2024-02-11T01:17:05.155Z,8.71
2024-02-11T01:19:34.007Z,8.70
2024-02-11T01:22:03.194Z,8.68
2024-02-11T01:24:31.682Z,8.65
2024-02-11T01:27:01.279Z,8.61
2024-02-11T01:29:29.965Z,8.58
2024-02-11T01:32:00.218Z,8.58
2024-02-11T01:34:30.472Z,8.56
2024-02-11T01:36:59.314Z,8.56
2024-02-11T01:39:28.395Z,8.56
2024-02-11T01:41:56.975Z,8.54
2024-02-11T01:44:25.510Z,8.52
2024-02-11T01:46:54.666Z,8.49
2024-02-11T01:49:23.953Z,8.47
2024-02-11T01:51:53.358Z,8.45
2024-02-11T01:54:22.962Z,8.42
2024-02-11T01:56:52.371Z,8.40
2024-02-11T01:59:21.198Z,8.37
2024-02-11T02:01:51.550Z,8.36
2024-02-11T02:04:20.405Z,8.37
2024-02-11T02:06:50.639Z,8.38
2024-02-11T02:09:19.592Z,8.40
2024-02-11T02:11:48.274Z,8.45
2024-02-11T02:14:17.713Z,8.44
2024-02-11T02:16:46.932Z,8.39
2024-02-11T02:19:16.629Z,8.35
2024-02-11T02:21:49.361Z,8.32
2024-02-11T02:24:18.251Z,8.29
2024-02-11T02:26:48.187Z,8.28
2024-02-11T02:29:16.957Z,8.29
2024-02-11T02:31:46.751Z,8.28
2024-02-11T02:34:15.514Z,8.29
2024-02-11T02:36:44.236Z,8.30
2024-02-11T02:39:14.971Z,8.32
2024-02-11T02:41:43.715Z,8.35
2024-02-11T02:44:12.549Z,8.37
2024-02-11T02:46:41.253Z,8.39
2024-02-11T02:49:10.069Z,8.42
2024-02-11T02:51:43.418Z,8.46
2024-02-11T02:54:14.252Z,8.51
2024-02-11T02:56:42.938Z,8.54
2024-02-11T02:59:12.077Z,8.57
2024-02-11T03:01:40.851Z,8.59
2024-02-11T03:04:10.323Z,8.61
2024-02-11T03:06:38.910Z,8.62
2024-02-11T03:09:07.925Z,8.63
2024-02-11T03:11:37.206Z,8.62
2024-02-11T03:14:06.452Z,8.60
2024-02-11T03:16:35.218Z,8.57
2024-02-11T03:19:07.391Z,8.55
2024-02-11T03:21:36.350Z,8.55
2024-02-11T03:24:06.156Z,8.55
2024-02-11T03:26:35.262Z,8.54
2024-02-11T03:29:04.766Z,8.55
2024-02-11T03:31:33.688Z,8.55
2024-02-11T03:34:06.575Z,8.55
2024-02-11T03:36:35.434Z,8.54
2024-02-11T03:39:10.996Z,8.53
2024-02-11T03:41:39.678Z,8.48
2024-02-11T03:44:08.689Z,8.47
2024-02-11T03:46:37.286Z,8.45
2024-02-11T03:49:06.461Z,8.44
2024-02-11T03:51:35.446Z,8.42
2024-02-11T03:54:04.719Z,8.42
2024-02-11T03:56:35.778Z,8.42
2024-02-11T03:59:05.014Z,8.41
2024-02-11T04:01:35.612Z,8.41
2024-02-11T04:04:05.642Z,8.44
2024-02-11T04:06:36.297Z,8.44
2024-02-11T04:09:05.236Z,8.44
2024-02-11T04:11:33.792Z,8.44
2024-02-11T04:14:02.937Z,8.44
2024-02-11T04:16:31.840Z,8.40
2024-02-11T04:19:00.718Z,8.40
2024-02-11T04:21:33.801Z,8.39
2024-02-11T04:24:02.776Z,8.39
2024-02-11T04:26:31.309Z,8.39
2024-02-11T04:29:01.791Z,8.38
2024-02-11T04:31:32.678Z,8.39
2024-02-11T04:34:02.156Z,8.42
2024-02-11T04:36:31.634Z,8.45
2024-02-11T04:39:01.504Z,8.47
2024-02-11T04:41:30.062Z,8.51
2024-02-11T04:43:58.855Z,8.52
2024-02-11T04:46:27.982Z,8.53
2024-02-11T04:48:57.988Z,8.53
2024-02-11T04:51:29.270Z,8.53
2024-02-11T04:54:01.342Z,8.53
2024-02-11T04:56:30.292Z,8.54
2024-02-11T04:59:03.408Z,8.55
2024-02-11T05:01:33.305Z,8.56
2024-02-11T05:04:03.123Z,8.56
2024-02-11T05:06:33.577Z,8.57
2024-02-11T05:09:02.520Z,8.57
2024-02-11T05:11:31.176Z,8.59
2024-02-11T05:14:00.019Z,8.58
2024-02-11T05:16:29.924Z,8.59
2024-02-11T05:18:58.678Z,8.61
2024-02-11T05:21:27.424Z,8.60
2024-02-11T05:23:56.729Z,8.60
2024-02-11T05:26:26.057Z,8.59
2024-02-11T05:28:55.239Z,8.59
2024-02-11T05:31:25.445Z,8.59
2024-02-11T05:33:54.017Z,8.58
2024-02-11T05:36:22.920Z,8.57
2024-02-11T05:38:51.497Z,8.60
2024-02-11T05:41:20.242Z,8.67
2024-02-11T05:43:49.649Z,8.83
2024-02-11T05:46:18.274Z,8.96
2024-02-11T05:48:46.970Z,9.03
2024-02-11T05:51:15.645Z,9.06
2024-02-11T05:53:44.437Z,9.12
2024-02-11T05:56:15.135Z,9.17
2024-02-11T05:58:43.804Z,9.21
2024-02-11T06:01:12.578Z,9.21
2024-02-11T06:03:41.766Z,9.25
2024-02-11T06:06:10.524Z,9.29
2024-02-11T06:08:39.330Z,9.34
2024-02-11T06:11:08.777Z,9.39
2024-02-11T06:13:38.586Z,9.42
2024-02-11T06:16:07.935Z,9.47
2024-02-11T06:18:37.735Z,9.51
2024-02-11T06:21:07.546Z,9.53
2024-02-11T06:23:37.979Z,9.56
2024-02-11T06:26:06.775Z,9.59
2024-02-11T06:28:36.467Z,9.64
2024-02-11T06:31:07.728Z,9.70
2024-02-11T06:33:36.369Z,9.77
2024-02-11T06:36:07.584Z,9.84
2024-02-11T06:38:38.077Z,9.94
2024-02-11T06:41:06.800Z,10.05
2024-02-11T06:43:36.278Z,10.15
2024-02-11T06:46:05.773Z,10.24
2024-02-11T06:48:34.444Z,10.30
2024-02-11T06:51:03.447Z,10.37
2024-02-11T06:53:32.605Z,10.47
2024-02-11T06:56:01.198Z,10.56
2024-02-11T06:58:31.266Z,10.65
2024-02-11T07:01:00.700Z,10.72
2024-02-11T07:03:30.414Z,10.81
2024-02-11T07:05:59.206Z,10.89
2024-02-11T07:08:29.032Z,10.98
2024-02-11T07:10:57.762Z,11.06
2024-02-11T07:13:27.068Z,11.16
2024-02-11T07:15:58.087Z,11.23
2024-02-11T07:18:28.023Z,11.33
2024-02-11T07:20:57.614Z,11.42
2024-02-11T07:23:28.160Z,11.52
2024-02-11T07:25:57.102Z,11.62
2024-02-11T07:28:27.383Z,11.72
2024-02-11T07:30:58.094Z,11.81
2024-02-11T07:33:26.832Z,11.88
2024-02-11T07:35:55.704Z,11.96
2024-02-11T07:38:24.850Z,12.02
2024-02-11T07:40:55.216Z,12.08
2024-02-11T07:43:26.946Z,12.15
2024-02-11T07:45:59.621Z,12.20
2024-02-11T07:48:29.649Z,12.29
2024-02-11T07:50:58.636Z,12.35
2024-02-11T07:53:27.355Z,12.41
2024-02-11T07:55:55.941Z,12.46
2024-02-11T07:58:25.439Z,12.51
2024-02-11T08:00:54.208Z,12.53
2024-02-11T08:03:24.716Z,12.57
2024-02-11T08:05:54.768Z,12.67
2024-02-11T08:08:23.447Z,12.75
2024-02-11T08:10:52.963Z,12.84
2024-02-11T08:13:22.540Z,12.93
2024-02-11T08:15:51.321Z,13.02
2024-02-11T08:18:20.055Z,13.09
2024-02-11T08:20:48.694Z,13.18
2024-02-11T08:23:17.302Z,13.24
2024-02-11T08:25:47.326Z,13.28
2024-02-11T08:28:16.086Z,13.35
2024-02-11T08:30:45.279Z,13.40
2024-02-11T08:33:14.183Z,13.44
2024-02-11T08:35:43.576Z,13.48
2024-02-11T08:38:12.187Z,13.53
2024-02-11T08:40:41.490Z,13.57
2024-02-11T08:43:10.548Z,13.62
2024-02-11T08:45:39.232Z,13.64
2024-02-11T08:48:08.336Z,13.61
2024-02-11T08:50:37.137Z,13.69
2024-02-11T08:53:06.805Z,13.68
2024-02-11T08:55:35.629Z,13.72
2024-02-11T08:58:05.876Z,13.74
2024-02-11T09:00:34.639Z,13.72
2024-02-11T09:03:04.549Z,13.77
2024-02-11T09:05:35.807Z,13.74
2024-02-11T09:08:04.541Z,13.72
2024-02-11T09:10:34.604Z,13.71
2024-02-11T09:13:03.602Z,13.67
2024-02-11T09:15:32.183Z,13.64
2024-02-11T09:18:01.082Z,13.67
2024-02-11T09:20:30.195Z,13.67
2024-02-11T09:22:59.173Z,13.67
2024-02-11T09:25:30.606Z,13.69
2024-02-11T09:28:00.031Z,13.71
2024-02-11T09:30:28.701Z,13.71
2024-02-11T09:32:57.518Z,13.71
2024-02-11T09:35:27.033Z,13.70
2024-02-11T09:37:55.920Z,13.69
2024-02-11T09:40:25.167Z,13.69
2024-02-11T09:42:55.081Z,13.69
2024-02-11T09:45:25.200Z,13.69
2024-02-11T09:47:55.578Z,13.71
2024-02-11T09:50:25.822Z,13.73
2024-02-11T09:52:54.713Z,13.81
2024-02-11T09:55:24.778Z,13.87
2024-02-11T09:57:53.442Z,13.90
2024-02-11T10:00:22.103Z,13.95
2024-02-11T10:02:51.611Z,13.99
2024-02-11T10:05:24.936Z,14.01
2024-02-11T10:07:56.641Z,14.02
2024-02-11T10:10:25.570Z,14.02
2024-02-11T10:12:56.351Z,14.03
2024-02-11T10:15:26.983Z,14.07
2024-02-11T10:17:55.576Z,14.12
2024-02-11T10:20:24.539Z,14.19
2024-02-11T10:22:53.640Z,14.25
2024-02-11T10:25:24.655Z,14.36
2024-02-11T10:27:53.878Z,14.47
2024-02-11T10:30:22.529Z,14.59
2024-02-11T10:32:51.650Z,14.69
2024-02-11T10:35:20.556Z,14.86
2024-02-11T10:37:53.695Z,15.11
2024-02-11T10:40:26.358Z,15.74
2024-02-11T10:42:56.253Z,16.53
2024-02-11T10:45:26.865Z,17.31
2024-02-11T10:47:55.543Z,17.92
2024-02-11T10:50:25.651Z,18.41
2024-02-11T10:52:57.026Z,18.60
2024-02-11T10:55:25.968Z,18.65
2024-02-11T10:57:55.903Z,18.67
2024-02-11T11:00:25.997Z,19.15
2024-02-11T11:03:02.579Z,19.67
2024-02-11T11:05:34.237Z,19.97
2024-02-11T11:08:03.485Z,20.05
2024-02-11T11:10:38.741Z,20.26
2024-02-11T11:13:10.502Z,20.51
2024-02-11T11:15:39.632Z,20.57
2024-02-11T11:18:10.710Z,20.53
2024-02-11T11:20:51.552Z,20.46
2024-02-11T11:23:20.588Z,20.07
2024-02-11T11:25:55.029Z,19.92
2024-02-11T11:28:29.072Z,19.88
2024-02-11T11:30:58.988Z,19.65
2024-02-11T11:33:33.799Z,19.48
2024-02-11T11:36:04.650Z,19.24
2024-02-11T11:38:33.421Z,19.13
2024-02-11T11:41:02.300Z,19.03
2024-02-11T11:43:34.126Z,18.92
2024-02-11T11:46:06.826Z,18.89
2024-02-11T11:48:38.120Z,18.85
2024-02-11T11:51:13.134Z,18.66
2024-02-11T11:53:45.325Z,18.46
2024-02-11T11:56:15.760Z,18.39
2024-02-11T11:58:44.870Z,18.32
2024-02-11T12:01:13.612Z,18.23
2024-02-11T12:03:43.063Z,18.27
2024-02-11T12:06:12.779Z,18.33
2024-02-11T12:08:41.487Z,18.36
2024-02-11T12:11:11.057Z,18.41
2024-02-11T12:13:40.475Z,18.46
2024-02-11T12:16:17.399Z,18.72
2024-02-11T12:18:47.225Z,19.06
2024-02-11T12:21:17.077Z,19.38
2024-02-11T12:23:46.117Z,19.79
2024-02-11T12:26:20.071Z,20.32
2024-02-11T12:28:52.345Z,20.72
2024-02-11T12:31:22.198Z,20.80
2024-02-11T12:33:51.957Z,20.74
2024-02-11T12:36:24.716Z,20.60
2024-02-11T12:38:55.173Z,20.43
2024-02-11T12:41:25.050Z,20.76
2024-02-11T12:43:54.980Z,21.35
2024-02-11T12:46:23.652Z,21.60
2024-02-11T12:48:52.377Z,21.64
2024-02-11T12:51:21.599Z,21.97
2024-02-11T12:53:50.888Z,22.28
2024-02-11T12:56:20.623Z,22.42
2024-02-11T12:58:52.571Z,22.37
2024-02-11T13:01:22.334Z,22.05
2024-02-11T13:03:51.860Z,21.58
2024-02-11T13:06:20.733Z,21.14
2024-02-11T13:08:49.609Z,20.81
2024-02-11T13:11:23.333Z,20.34
2024-02-11T13:13:53.591Z,19.78
2024-02-11T13:16:23.038Z,19.34
2024-02-11T13:18:53.552Z,19.03
2024-02-11T13:21:22.562Z,18.85
2024-02-11T13:23:51.348Z,18.61
2024-02-11T13:26:20.412Z,18.35
2024-02-11T13:28:49.993Z,18.13
2024-02-11T13:31:25.343Z,18.12
2024-02-11T13:33:59.001Z,18.42
2024-02-11T13:36:28.846Z,19.07
2024-02-11T13:38:57.703Z,19.72
2024-02-11T13:41:26.598Z,20.40
2024-02-11T13:43:55.337Z,21.11
2024-02-11T13:46:23.956Z,21.41
2024-02-11T13:48:53.213Z,21.01
2024-02-11T13:51:22.244Z,21.04
2024-02-11T13:53:50.940Z,21.28
2024-02-11T13:56:19.671Z,21.57
2024-02-11T13:58:48.866Z,21.57
2024-02-11T14:01:17.797Z,21.34
2024-02-11T14:03:47.517Z,20.88
2024-02-11T14:06:16.979Z,20.53
2024-02-11T14:08:48.365Z,20.25
2024-02-11T14:11:17.900Z,20.53
2024-02-11T14:13:46.870Z,20.81
2024-02-11T14:16:17.038Z,21.01
2024-02-11T14:18:45.816Z,21.14
2024-02-11T14:21:14.665Z,21.12
2024-02-11T14:23:47.674Z,21.16
2024-02-11T14:26:18.692Z,21.30
2024-02-11T14:28:49.568Z,21.35
2024-02-11T14:31:18.115Z,21.17
2024-02-11T14:33:46.758Z,20.89
2024-02-11T14:36:16.501Z,20.33
2024-02-11T14:38:47.042Z,19.79
2024-02-11T14:41:20.569Z,19.55
2024-02-11T14:43:49.389Z,19.29
2024-02-11T14:46:20.371Z,19.24
2024-02-11T14:48:48.917Z,19.41
2024-02-11T14:51:17.949Z,19.55
2024-02-11T14:53:48.096Z,19.45
2024-02-11T14:56:16.783Z,19.17
2024-02-11T14:58:45.809Z,18.71
2024-02-11T15:01:16.330Z,18.25
2024-02-11T15:03:46.266Z,17.86
2024-02-11T15:06:15.448Z,17.47
2024-02-11T15:08:45.641Z,17.14
2024-02-11T15:11:15.942Z,16.88
2024-02-11T15:13:45.550Z,16.68
2024-02-11T15:16:14.626Z,16.49
2024-02-11T15:18:43.362Z,16.33
2024-02-11T15:21:12.310Z,16.20
2024-02-11T15:23:40.895Z,16.13
2024-02-11T15:26:10.949Z,16.03
2024-02-11T15:28:39.778Z,15.90
2024-02-11T15:31:08.786Z,15.82
2024-02-11T15:33:37.525Z,15.72
2024-02-11T15:36:08.018Z,15.66
2024-02-11T15:38:39.318Z,15.58
2024-02-11T15:41:11.268Z,15.50
2024-02-11T15:43:40.003Z,15.42
2024-02-11T15:46:08.797Z,15.34
2024-02-11T15:48:38.806Z,15.27
2024-02-11T15:51:11.282Z,15.19
2024-02-11T15:53:39.857Z,15.10
2024-02-11T15:56:09.003Z,15.03
2024-02-11T15:58:37.951Z,14.95
2024-02-11T16:01:07.329Z,14.87
2024-02-11T16:03:38.351Z,14.80
2024-02-11T16:06:07.653Z,14.73
2024-02-11T16:08:38.221Z,14.64
2024-02-11T16:11:06.854Z,14.58
2024-02-11T16:13:36.020Z,14.51
2024-02-11T16:16:05.025Z,14.43
2024-02-11T16:18:33.948Z,14.35
2024-02-11T16:21:03.083Z,14.27
2024-02-11T16:23:32.299Z,14.18
2024-02-11T16:26:01.092Z,14.08
2024-02-11T16:28:29.873Z,13.98
2024-02-11T16:30:59.799Z,13.90
2024-02-11T16:33:34.829Z,13.82
2024-02-11T16:36:04.693Z,13.77
2024-02-11T16:38:33.729Z,13.71
2024-02-11T16:41:02.657Z,13.68
2024-02-11T16:43:31.709Z,13.63
2024-02-11T16:46:00.343Z,13.55
2024-02-11T16:48:29.283Z,13.46
2024-02-11T16:51:00.003Z,13.40
2024-02-11T16:53:29.850Z,13.36
2024-02-11T16:55:58.776Z,13.29
2024-02-11T16:58:29.046Z,13.29
2024-02-11T17:01:00.346Z,13.24
2024-02-11T17:03:29.736Z,13.17
2024-02-11T17:05:58.824Z,13.11
2024-02-11T17:08:27.797Z,13.02
2024-02-11T17:10:56.686Z,12.94
2024-02-11T17:13:25.755Z,12.89
2024-02-11T17:15:56.081Z,12.82
2024-02-11T17:18:25.707Z,12.79
2024-02-11T17:21:06.599Z,12.78
2024-02-11T17:23:41.816Z,12.83
2024-02-11T17:26:12.079Z,12.79
2024-02-11T17:28:47.692Z,12.73
2024-02-11T17:31:16.564Z,12.71
2024-02-11T17:33:47.232Z,12.71
2024-02-11T17:36:16.946Z,12.73
2024-02-11T17:38:46.203Z,12.78
2024-02-11T17:41:15.777Z,12.85
2024-02-11T17:43:44.865Z,12.91
2024-02-11T17:46:15.025Z,12.94
2024-02-11T17:48:45.490Z,12.92
2024-02-11T17:51:18.527Z,12.89
2024-02-11T17:53:50.734Z,12.93
2024-02-11T17:56:20.069Z,12.94
2024-02-11T17:58:49.109Z,13.03
2024-02-11T18:01:18.973Z,13.02
2024-02-11T18:03:49.234Z,12.98
2024-02-11T18:06:18.371Z,12.92
2024-02-11T18:08:47.840Z,12.85
2024-02-11T18:11:16.651Z,12.79
2024-02-11T18:13:45.465Z,12.70
2024-02-11T18:16:14.194Z,12.62
2024-02-11T18:18:42.846Z,12.58
2024-02-11T18:21:12.490Z,12.54
2024-02-11T18:23:41.589Z,12.44
2024-02-11T18:26:13.292Z,12.35
2024-02-11T18:28:43.821Z,12.25
2024-02-11T18:31:17.589Z,12.20
2024-02-11T18:33:46.853Z,12.22
2024-02-11T18:36:15.622Z,12.21
2024-02-11T18:38:44.407Z,12.19
2024-02-11T18:41:16.009Z,12.17
2024-02-11T18:43:47.313Z,12.18
2024-02-11T18:46:17.068Z,12.15
2024-02-11T18:48:46.125Z,12.15
2024-02-11T18:51:15.383Z,12.15
2024-02-11T18:53:44.071Z,12.14
2024-02-11T18:56:12.789Z,12.09
2024-02-11T18:58:44.308Z,12.10
2024-02-11T19:01:13.062Z,12.12
2024-02-11T19:03:42.275Z,12.10
2024-02-11T19:06:11.239Z,12.12
2024-02-11T19:08:41.578Z,12.05
2024-02-11T19:11:10.839Z,11.92
2024-02-11T19:13:39.464Z,11.75
2024-02-11T19:16:09.985Z,11.58
2024-02-11T19:18:38.961Z,11.40
2024-02-11T19:21:07.874Z,11.27
2024-02-11T19:23:37.791Z,11.17
2024-02-11T19:26:06.855Z,11.09
2024-02-11T19:28:35.588Z,11.00
2024-02-11T19:31:04.568Z,10.88
2024-02-11T19:33:34.519Z,10.74
2024-02-11T19:36:03.774Z,10.63
2024-02-11T19:38:32.425Z,10.55
2024-02-11T19:41:01.382Z,10.47
2024-02-11T19:43:31.166Z,10.41
2024-02-11T19:46:00.367Z,10.38
2024-02-11T19:48:29.821Z,10.36
2024-02-11T19:51:00.196Z,10.31
2024-02-11T19:53:35.530Z,10.26
2024-02-11T19:56:09.529Z,10.18
2024-02-11T19:58:41.543Z,10.07
2024-02-11T20:01:11.463Z,9.93
2024-02-11T20:03:41.342Z,9.77
2024-02-11T20:06:10.154Z,9.63
2024-02-11T20:08:39.113Z,9.48
2024-02-11T20:11:10.285Z,9.34
2024-02-11T20:13:38.956Z,9.24
2024-02-11T20:16:14.060Z,9.16
2024-02-11T20:18:43.138Z,9.12
2024-02-11T20:21:12.584Z,9.07
2024-02-11T20:23:44.924Z,9.02
2024-02-11T20:26:16.708Z,9.00
2024-02-11T20:28:47.274Z,9.01
2024-02-11T20:31:16.440Z,8.99
2024-02-11T20:33:48.289Z,9.01
2024-02-11T20:36:17.509Z,9.03
2024-02-11T20:38:46.412Z,9.00
2024-02-11T20:41:18.779Z,8.95
2024-02-11T20:43:47.410Z,8.87
2024-02-11T20:46:16.129Z,8.78
2024-02-11T20:48:45.648Z,8.72
2024-02-11T20:51:14.318Z,8.69
2024-02-11T20:53:45.647Z,8.68
2024-02-11T20:56:15.437Z,8.66
2024-02-11T20:58:45.290Z,8.64
2024-02-11T21:01:14.232Z,8.64
2024-02-11T21:03:42.902Z,8.62
2024-02-11T21:06:13.296Z,8.64
2024-02-11T21:08:41.973Z,8.70
2024-02-11T21:11:10.588Z,8.78
2024-02-11T21:13:41.802Z,8.89
2024-02-11T21:16:11.819Z,8.97
2024-02-11T21:18:45.317Z,9.04
2024-02-11T21:21:14.662Z,9.05
2024-02-11T21:23:46.285Z,9.07
2024-02-11T21:26:17.395Z,9.16
2024-02-11T21:28:49.521Z,9.20
2024-02-11T21:31:22.299Z,9.22
2024-02-11T21:33:52.500Z,9.21
2024-02-11T21:36:21.482Z,9.20
2024-02-11T21:38:50.065Z,9.17
2024-02-11T21:41:19.509Z,9.13
2024-02-11T21:43:48.683Z,9.09
2024-02-11T21:46:19.564Z,9.04
2024-02-11T21:48:58.455Z,9.00
2024-02-11T21:51:27.647Z,8.93
2024-02-11T21:53:56.415Z,8.86
2024-02-11T21:56:24.944Z,8.81
2024-02-11T21:58:53.731Z,8.78
2024-02-11T22:01:24.621Z,8.78
2024-02-11T22:03:55.614Z,8.84
2024-02-11T22:06:27.200Z,8.86
2024-02-11T22:08:56.002Z,8.84
2024-02-11T22:11:25.370Z,8.82
2024-02-11T22:13:54.357Z,8.81
2024-02-11T22:16:23.389Z,8.76
2024-02-11T22:18:53.251Z,8.71
2024-02-11T22:21:22.086Z,8.66
2024-02-11T22:23:50.675Z,8.60
2024-02-11T22:26:19.209Z,8.56
2024-02-11T22:28:47.966Z,8.51
2024-02-11T22:31:17.365Z,8.44
2024-02-11T22:33:46.402Z,8.37
2024-02-11T22:36:17.686Z,8.33
2024-02-11T22:38:46.816Z,8.24
2024-02-11T22:41:17.456Z,8.17
2024-02-11T22:43:47.554Z,8.08
2024-02-11T22:46:16.141Z,8.01
2024-02-11T22:48:45.228Z,7.97
2024-02-11T22:51:14.109Z,7.94
2024-02-11T22:53:42.629Z,7.94
2024-02-11T22:56:11.441Z,7.93
2024-02-11T22:58:40.050Z,7.91
2024-02-11T23:01:08.655Z,7.92
2024-02-11T23:03:37.322Z,7.95
2024-02-11T23:06:06.429Z,7.99
2024-02-11T23:08:35.342Z,8.02
2024-02-11T23:11:04.006Z,8.02
2024-02-11T23:13:34.111Z,7.97
2024-02-11T23:16:03.107Z,7.90
2024-02-11T23:18:31.770Z,7.86
2024-02-11T23:21:03.195Z,7.84
2024-02-11T23:23:32.108Z,7.81
2024-02-11T23:26:04.079Z,7.79
2024-02-11T23:28:32.701Z,7.79
2024-02-11T23:31:01.366Z,7.81
2024-02-11T23:33:30.209Z,7.85
2024-02-11T23:35:58.831Z,7.90
2024-02-11T23:38:28.374Z,7.95
2024-02-11T23:40:57.240Z,7.98
2024-02-11T23:43:26.429Z,7.99
2024-02-11T23:45:55.019Z,7.99
2024-02-11T23:48:23.879Z,8.02
2024-02-11T23:50:58.169Z,8.03
2024-02-11T23:53:28.471Z,8.05
2024-02-11T23:55:57.848Z,8.05
2024-02-11T23:58:27.688Z,8.04
